createdAt,value
2023-04-17T04:03:59.949Z,100491.28
2023-04-17T04:08:03.468Z,100491.63
2023-04-17T04:12:19.134Z,100490.41
2023-04-17T04:16:22.156Z,100505.72
2023-04-17T04:20:27.611Z,100507.22
2023-04-17T04:24:40.405Z,100509.56
2023-04-17T04:28:43.751Z,100511.94
2023-04-17T04:32:56.075Z,100516.81
2023-04-17T04:37:01.270Z,100516.63
2023-04-17T04:41:13.137Z,100525.53
2023-04-17T04:45:18.697Z,100524.34
2023-04-17T04:49:21.826Z,100529.38
2023-04-17T04:53:25.921Z,100529.03
2023-04-17T04:57:32.226Z,100544.16
2023-04-17T05:01:39.624Z,100540.31
2023-04-17T05:05:44.281Z,100544.53
2023-04-17T05:09:51.271Z,100544.88
2023-04-17T05:13:53.871Z,100550.91
2023-04-17T05:18:01.256Z,100545.53
2023-04-17T05:22:05.683Z,100553.44
2023-04-17T05:26:16.281Z,100555.44
2023-04-17T05:30:19.129Z,100554.28
2023-04-17T05:34:27.734Z,100563.03
2023-04-17T05:38:30.273Z,100561.41
2023-04-17T05:42:34.429Z,100568.97
2023-04-17T05:46:37.206Z,100563.44
2023-04-17T05:50:40.613Z,100572.53
2023-04-17T05:54:43.799Z,100575.03
2023-04-17T05:58:47.842Z,100582.75
2023-04-17T06:02:51.086Z,100585.13
2023-04-17T06:07:02.813Z,100582.25
2023-04-17T06:11:05.512Z,100588.13
2023-04-17T06:15:11.317Z,100597.25
2023-04-17T06:19:14.080Z,100598.91
2023-04-17T06:23:16.947Z,100602.78
2023-04-17T06:27:19.448Z,100595.72
2023-04-17T06:31:24.152Z,100606.81
2023-04-17T06:35:26.840Z,100601.94
2023-04-17T06:39:34.910Z,100607.47
2023-04-17T06:43:38.018Z,100601.06
2023-04-17T06:47:50.538Z,100601.91
2023-04-17T06:51:53.137Z,100601.19
2023-04-17T06:55:55.693Z,100613.09
2023-04-17T06:59:58.194Z,100614.59
2023-04-17T07:04:02.517Z,100622.47
2023-04-17T07:08:05.513Z,100620.75
2023-04-17T07:12:08.035Z,100621.97
2023-04-17T07:16:10.610Z,100628.31
2023-04-17T07:20:14.714Z,100624.16
2023-04-17T07:24:17.296Z,100632.47
2023-04-17T07:28:20.091Z,100635.38
2023-04-17T07:32:24.144Z,100637.38
2023-04-17T07:36:28.465Z,100641.19
2023-04-17T07:40:32.060Z,100647.88
2023-04-17T07:44:34.599Z,100640.63
2023-04-17T07:48:37.136Z,100649.72
2023-04-17T07:52:41.071Z,100653.22
2023-04-17T07:56:46.437Z,100653.91
2023-04-17T08:00:48.949Z,100663.63
2023-04-17T08:04:52.343Z,100653.91
2023-04-17T08:08:56.429Z,100655.94
2023-04-17T08:12:59.130Z,100646.88
2023-04-17T08:17:01.830Z,100654.41
2023-04-17T08:21:04.979Z,100662.78
2023-04-17T08:25:10.274Z,100671.13
2023-04-17T08:29:13.818Z,100665.69
2023-04-17T08:33:17.156Z,100672.97
2023-04-17T08:37:19.787Z,100671.94
2023-04-17T08:41:27.759Z,100673.44
2023-04-17T08:45:30.510Z,100675.00
2023-04-17T08:49:35.647Z,100677.84
2023-04-17T08:53:38.266Z,100675.53
2023-04-17T08:57:56.197Z,100682.63
2023-04-17T09:02:03.181Z,100686.59
2023-04-17T09:06:06.377Z,100686.38
2023-04-17T09:10:09.603Z,100690.16
2023-04-17T09:14:30.652Z,100690.03
2023-04-17T09:18:34.568Z,100678.66
2023-04-17T09:22:39.207Z,100686.44
2023-04-17T09:26:41.983Z,100687.38
2023-04-17T09:30:45.870Z,100686.78
2023-04-17T09:34:48.389Z,100686.47
2023-04-17T09:38:51.504Z,100684.41
2023-04-17T09:42:59.439Z,100681.41
2023-04-17T09:47:06.015Z,100684.81
2023-04-17T09:51:08.887Z,100688.41
2023-04-17T09:55:12.710Z,100687.38
2023-04-17T09:59:16.541Z,100690.94
2023-04-17T10:03:21.242Z,100677.94
2023-04-17T10:07:23.962Z,100683.69
2023-04-17T10:11:31.285Z,100685.97
2023-04-17T10:15:34.619Z,100679.88
2023-04-17T10:19:38.652Z,100687.84
2023-04-17T10:23:41.167Z,100683.25
2023-04-17T10:27:45.318Z,100683.56
2023-04-17T10:32:17.382Z,100679.75
2023-04-17T10:36:51.170Z,100692.44
2023-04-17T10:40:54.768Z,100685.59
2023-04-17T10:45:01.498Z,100671.41
2023-04-17T10:49:05.503Z,100678.59
2023-04-17T10:53:09.461Z,100663.75
2023-04-17T10:57:12.027Z,100672.59
2023-04-17T11:01:14.650Z,100665.03
2023-04-17T11:05:18.206Z,100654.22
2023-04-17T11:09:23.481Z,100657.28
2023-04-17T11:13:26.383Z,100665.72
2023-04-17T11:17:28.974Z,100660.44
2023-04-17T11:21:31.516Z,100648.13
2023-04-17T11:25:35.504Z,100655.69
2023-04-17T11:29:38.038Z,100654.84
2023-04-17T11:33:41.212Z,100651.28
2023-04-17T11:38:17.534Z,100649.38
2023-04-17T11:42:28.134Z,100648.16
2023-04-17T11:46:30.808Z,100647.50
2023-04-17T11:50:34.165Z,100644.09
2023-04-17T11:54:37.377Z,100647.50
2023-04-17T11:58:48.443Z,100656.09
2023-04-17T12:02:51.859Z,100643.97
2023-04-17T12:06:54.523Z,100649.38
2023-04-17T12:10:58.163Z,100632.81
2023-04-17T12:15:02.908Z,100640.56
2023-04-17T12:19:05.530Z,100624.91
2023-04-17T12:23:08.050Z,100636.56
2023-04-17T12:27:10.642Z,100616.09
2023-04-17T12:31:14.522Z,100639.72
2023-04-17T12:35:17.112Z,100639.56
2023-04-17T12:39:19.743Z,100641.81
2023-04-17T12:43:22.239Z,100629.75
2023-04-17T12:47:26.216Z,100638.47
2023-04-17T12:51:29.052Z,100637.63
2023-04-17T12:55:32.266Z,100625.16
2023-04-17T12:59:34.795Z,100622.16
2023-04-17T13:03:38.864Z,100623.88
2023-04-17T13:07:41.651Z,100616.22
2023-04-17T13:11:44.190Z,100622.72
2023-04-17T13:15:47.423Z,100620.88
2023-04-17T13:19:51.154Z,100628.69
2023-04-17T13:23:53.659Z,100619.25
2023-04-17T13:27:56.219Z,100623.63
2023-04-17T13:31:58.885Z,100609.81
2023-04-17T13:36:02.793Z,100600.19
2023-04-17T13:40:06.222Z,100612.69
2023-04-17T13:44:08.787Z,100599.31
2023-04-17T13:48:11.439Z,100603.44
2023-04-17T13:52:15.369Z,100601.41
2023-04-17T13:56:17.881Z,100594.09
2023-04-17T14:00:21.966Z,100609.22
2023-04-17T14:04:24.690Z,100594.00
2023-04-17T14:08:28.682Z,100592.34
2023-04-17T14:12:31.187Z,100587.50
2023-04-17T14:16:33.813Z,100584.41
2023-04-17T14:20:36.633Z,100590.09
2023-04-17T14:24:40.480Z,100585.53
2023-04-17T14:28:43.029Z,100582.47
2023-04-17T14:32:45.594Z,100589.50
2023-04-17T14:36:48.785Z,100592.97
2023-04-17T14:40:52.829Z,100590.41
2023-04-17T14:44:55.368Z,100576.06
2023-04-17T14:48:57.902Z,100590.00
2023-04-17T14:53:00.546Z,100578.50
2023-04-17T14:57:04.638Z,100583.59
2023-04-17T15:01:07.205Z,100574.88
2023-04-17T15:05:10.716Z,100590.88
2023-04-17T15:09:13.649Z,100579.72
2023-04-17T15:13:17.604Z,100590.28
2023-04-17T15:17:20.294Z,100582.97
2023-04-17T15:21:22.957Z,100583.84
2023-04-17T15:25:25.763Z,100577.91
2023-04-17T15:29:29.657Z,100579.84
2023-04-17T15:33:32.197Z,100577.38
2023-04-17T15:37:34.817Z,100575.78
2023-04-17T15:41:40.218Z,100566.94
2023-04-17T15:45:44.245Z,100569.22
2023-04-17T15:49:48.073Z,100563.00
2023-04-17T15:53:50.755Z,100572.25
2023-04-17T15:57:53.299Z,100571.50
2023-04-17T16:01:57.288Z,100568.09
2023-04-17T16:05:59.887Z,100562.13
2023-04-17T16:10:02.432Z,100567.84
2023-04-17T16:14:04.995Z,100563.00
2023-04-17T16:18:09.252Z,100566.28
2023-04-17T16:22:11.768Z,100566.38
2023-04-17T16:26:14.574Z,100559.06
2023-04-17T16:30:17.181Z,100564.75
2023-04-17T16:34:21.319Z,100561.00
2023-04-17T16:38:23.916Z,100564.25
2023-04-17T16:42:26.422Z,100563.84
2023-04-17T16:46:40.194Z,100560.69
2023-04-17T16:50:52.794Z,100571.81
2023-04-17T16:54:55.310Z,100568.31
2023-04-17T16:58:57.794Z,100569.19
2023-04-17T17:03:00.482Z,100569.19
2023-04-17T17:07:04.625Z,100579.72
2023-04-17T17:11:07.198Z,100571.84
2023-04-17T17:15:10.459Z,100580.13
2023-04-17T17:19:12.997Z,100583.28
2023-04-17T17:23:17.102Z,100580.97
2023-04-17T17:27:19.645Z,100587.50
2023-04-17T17:31:22.367Z,100577.69
2023-04-17T17:35:24.997Z,100582.69
2023-04-17T17:39:28.879Z,100586.25
2023-04-17T17:43:31.406Z,100591.56
2023-04-17T17:47:34.005Z,100593.75
2023-04-17T17:51:36.669Z,100585.50
2023-04-17T17:55:40.624Z,100584.31
2023-04-17T17:59:43.177Z,100593.31
2023-04-17T18:03:48.122Z,100597.66
2023-04-17T18:07:52.294Z,100603.66
2023-04-17T18:11:56.867Z,100607.59
2023-04-17T18:15:59.423Z,100604.41
2023-04-17T18:20:01.985Z,100604.47
2023-04-17T18:24:04.938Z,100608.72
2023-04-17T18:28:08.812Z,100608.25
2023-04-17T18:32:11.495Z,100619.09
2023-04-17T18:36:14.105Z,100624.41
2023-04-17T18:40:16.771Z,100633.91
2023-04-17T18:44:20.813Z,100642.69
2023-04-17T18:48:24.764Z,100643.44
2023-04-17T18:52:27.320Z,100654.88
2023-04-17T18:56:30.232Z,100654.13
2023-04-17T19:00:34.169Z,100654.47
2023-04-17T19:04:36.708Z,100667.06
2023-04-17T19:08:39.751Z,100659.41
2023-04-17T19:12:43.866Z,100650.84
2023-04-17T19:16:47.826Z,100661.28
2023-04-17T19:20:50.681Z,100665.56
2023-04-17T19:24:53.190Z,100678.28
2023-04-17T19:28:56.125Z,100661.78
2023-04-17T19:33:00.317Z,100672.28
2023-04-17T19:37:02.959Z,100669.63
2023-04-17T19:41:14.692Z,100678.25
2023-04-17T19:45:17.646Z,100679.84
2023-04-17T19:49:21.535Z,100671.66
2023-04-17T19:53:24.084Z,100674.53
2023-04-17T19:57:26.708Z,100681.25
2023-04-17T20:01:30.739Z,100682.13
2023-04-17T20:05:34.768Z,100700.50
2023-04-17T20:09:37.278Z,100695.16
2023-04-17T20:13:39.861Z,100700.69
2023-04-17T20:17:42.456Z,100711.16
2023-04-17T20:21:47.559Z,100707.41
2023-04-17T20:25:50.432Z,100713.31
2023-04-17T20:29:52.992Z,100711.63
2023-04-17T20:33:55.581Z,100718.34
2023-04-17T20:37:59.438Z,100718.72
2023-04-17T20:42:01.979Z,100720.88
2023-04-17T20:46:05.949Z,100718.53
2023-04-17T20:50:09.653Z,100720.38
2023-04-17T20:54:13.702Z,100722.41
2023-04-17T20:58:16.385Z,100716.00
